Terminal Aerodrome Forecast
Issued by NWS Brownsville, TX

Home | Current Version | Previous Version | Text Only | Print | Product List | Glossary On
Versions: 1 2 3 4 5 6 7 8 9 10 11 12 13 14 15 16 17
000
FTUS44 KBRO 211100
TAFHRL
TAF
KHRL 211130Z 2112/2212 03006KT P6SM VCSH FEW030
      TEMPO 2112/2116 -SHRA SCT025
     FM211700 07012KT P6SM VCSH SCT030 BKN050
     FM212200 06010KT P6SM SCT050 SCT120
     FM220200 05005KT P6SM FEW050 BKN120=

USA.gov is the U.S. government's official web portal to all federal, state and local government web resources and services.